S 386 Casilo — OZZP — position and weather

sailwx.info

Track history (hours):
 
Tides and Currents Weather Stations Pressure Air Temp Water Temp Dewpoint Dewpoint Depression Visibility Wind Speed Wind Dir Waves Ship Positions

S 386 Casilo

Last reported at 2017-Feb-22 10:29 UTC. Time now 2017-Feb-22 10:52 UTC.
Position N 57°43' E 010°36'.

Length 24 m.

Type: Fishing. MMSI: 219948000.

Date/timePositionNaut miles runAvg speedWind from/ knotsBaromVisibWave heightAir tempDewpointWater temp
2017-Feb-22 10:29N 57°43' E 010°36'4 4.4
2017-Feb-22 09:33N 57°45' E 010°43'  
2017-Feb-18 13:23N 58°08' E 009°51'4 0.4
2017-Feb-18 04:05N 58°10' E 009°56'6 8.6
2017-Feb-18 03:25N 58°13' E 010°05'1 1.2
2017-Feb-18 02:33N 58°14' E 010°07'2 1.8
2017-Feb-18 01:33N 58°13' E 010°04'2 2.1
2017-Feb-18 00:32N 58°12' E 010°00'2 2.0
2017-Feb-17 23:28N 58°11' E 009°57'2 1.9
2017-Feb-17 22:33N 58°10' E 009°54'8 2.0
2017-Feb-17 18:26N 58°05' E 009°41'30 1.2
2017-Feb-16 18:33N 57°48' E 010°28'8 8.4
2017-Feb-16 17:33N 57°45' E 010°42'4 3.9
2017-Feb-16 16:30N 57°43' E 010°35'0 0.2
2017-Feb-16 15:33N 57°43' E 010°36'0 0.0
2017-Feb-16 14:33N 57°43' E 010°36'0 0.0
2017-Feb-16 12:12N 57°43' E 010°36'0 0.0
2017-Feb-16 11:16N 57°43' E 010°36'0 0.0
2017-Feb-16 10:28N 57°43' E 010°36'0 0.0
2017-Feb-16 09:26N 57°43' E 010°36'0 0.2
2017-Feb-16 08:06N 57°43' E 010°36'4 7.6
2017-Feb-16 07:33N 57°45' E 010°42'8 7.8
2017-Feb-16 06:33N 57°52' E 010°49'8 8.3
2017-Feb-16 05:33N 57°59' E 010°56'9 8.9
2017-Feb-16 04:33N 58°08' E 011°03'9 8.9
2017-Feb-16 03:33N 58°16' E 011°10'6 5.9
2017-Feb-16 02:33N 58°21' E 011°14'3 2.7
2017-Feb-16 01:33N 58°20' E 011°09'1010.0
2017-Feb-16 00:33N 58°20' E 010°50'2110.3
2017-Feb-15 22:33N 58°15' E 010°12'4 3.9
2017-Feb-15 21:29N 58°14' E 010°04'2 2.0
2017-Feb-15 20:33N 58°13' E 010°01'2 2.1
2017-Feb-15 19:32N 58°12' E 009°58'2 2.2
2017-Feb-15 18:33N 58°10' E 009°54'2 2.2
2017-Feb-15 17:33N 58°09' E 009°51'2 2.0
2017-Feb-15 16:33N 58°08' E 009°48'2 1.8
2017-Feb-15 15:30N 58°07' E 009°45'2 1.8
2017-Feb-15 14:30N 58°06' E 009°42'2 1.8
2017-Feb-15 13:31N 58°05' E 009°39'2 1.8
2017-Feb-15 12:33N 58°05' E 009°36'6 2.0
2017-Feb-15 09:31N 58°01' E 009°26'1 1.4
2017-Feb-15 08:33N 58°01' E 009°24'11 9.2
2017-Feb-15 07:23N 58°06' E 009°42'7 8.2
2017-Feb-15 06:33N 58°09' E 009°53'4 4.3
2017-Feb-15 05:33N 58°11' E 010°01'2 1.9
2017-Feb-15 04:33N 58°13' E 010°03'2 1.5
2017-Feb-15 03:33N 58°12' E 010°00'2 2.1
2017-Feb-15 02:33N 58°11' E 009°57'2 2.0
2017-Feb-15 01:33N 58°10' E 009°54'2 2.2
2017-Feb-15 00:33N 58°09' E 009°50'2 2.0
2017-Feb-14 23:33N 58°08' E 009°47'2 2.2
2017-Feb-14 22:29N 58°06' E 009°43'2 2.2
2017-Feb-14 21:33N 58°05' E 009°40'2 2.0
2017-Feb-14 20:32N 58°04' E 009°37'2 1.9
2017-Feb-14 19:33N 58°03' E 009°34'2 2.0
2017-Feb-14 18:32N 58°02' E 009°31'2 2.1
2017-Feb-14 17:33N 58°01' E 009°27'2 2.3
2017-Feb-14 16:31N 58°00' E 009°23'8 8.1
2017-Feb-14 15:33N 58°04' E 009°36'3 3.1
2017-Feb-14 14:33N 58°04' E 009°42'2 1.7
2017-Feb-14 13:33N 58°03' E 009°39'2 2.2
2017-Feb-14 12:33N 58°02' E 009°36'2 2.1
2017-Feb-14 11:33N 58°00' E 009°32'2 2.2
2017-Feb-14 10:33N 57°60' E 009°29'2 2.2
2017-Feb-14 09:31N 57°59' E 009°25'2 2.2
2017-Feb-14 08:33N 57°58' E 009°21'2 2.2
2017-Feb-14 07:33N 57°57' E 009°17'2 2.1
2017-Feb-14 06:33N 57°56' E 009°14'2 2.1
2017-Feb-14 05:33N 57°55' E 009°10'2 2.2
2017-Feb-14 04:33N 57°54' E 009°07'2 2.2
2017-Feb-14 03:25N 57°53' E 009°03'3 2.2
2017-Feb-14 02:14N 57°51' E 008°58'20 7.4
2017-Feb-13 23:33N 57°41' E 008°27'17 1.5
2017-Feb-13 12:22N 57°34' E 007°58'21 0.9
2017-Feb-12 14:16N 57°34' E 008°36'810.6
2017-Feb-12 13:28N 57°34' E 008°52'1010.3
2017-Feb-12 12:27N 57°35' E 009°11'910.4
2017-Feb-12 11:33N 57°35' E 009°29'1110.5
2017-Feb-12 10:32N 57°36' E 009°49'  
Track history (hours):
 
Tides and Currents Weather Stations Pressure Air Temp Water Temp Dewpoint Dewpoint Depression Visibility Wind Speed Wind Dir Waves Ship Positions

S 386 Casilo

Last reported at 2017-Feb-22 10:29 UTC. Time now 2017-Feb-22 10:52 UTC.
Position N 57°43' E 010°36'.

Length 24 m.

Type: Fishing. MMSI: 219948000.

Date/timePositionNaut miles runAvg speedWind from/ knotsBaromVisibWave heightAir tempDewpointWater temp
2017-Feb-22 10:29N 57°43' E 010°36'4 4.4
2017-Feb-22 09:33N 57°45' E 010°43'  
2017-Feb-18 13:23N 58°08' E 009°51'4 0.4
2017-Feb-18 04:05N 58°10' E 009°56'6 8.6
2017-Feb-18 03:25N 58°13' E 010°05'1 1.2
2017-Feb-18 02:33N 58°14' E 010°07'2 1.8
2017-Feb-18 01:33N 58°13' E 010°04'2 2.1
2017-Feb-18 00:32N 58°12' E 010°00'2 2.0
2017-Feb-17 23:28N 58°11' E 009°57'2 1.9
2017-Feb-17 22:33N 58°10' E 009°54'8 2.0
2017-Feb-17 18:26N 58°05' E 009°41'30 1.2
2017-Feb-16 18:33N 57°48' E 010°28'8 8.4
2017-Feb-16 17:33N 57°45' E 010°42'4 3.9
2017-Feb-16 16:30N 57°43' E 010°35'0 0.2
2017-Feb-16 15:33N 57°43' E 010°36'0 0.0
2017-Feb-16 14:33N 57°43' E 010°36'0 0.0
2017-Feb-16 12:12N 57°43' E 010°36'0 0.0
2017-Feb-16 11:16N 57°43' E 010°36'0 0.0
2017-Feb-16 10:28N 57°43' E 010°36'0 0.0
2017-Feb-16 09:26N 57°43' E 010°36'0 0.2
2017-Feb-16 08:06N 57°43' E 010°36'4 7.6
2017-Feb-16 07:33N 57°45' E 010°42'8 7.8
2017-Feb-16 06:33N 57°52' E 010°49'8 8.3
2017-Feb-16 05:33N 57°59' E 010°56'9 8.9
2017-Feb-16 04:33N 58°08' E 011°03'9 8.9
2017-Feb-16 03:33N 58°16' E 011°10'6 5.9
2017-Feb-16 02:33N 58°21' E 011°14'3 2.7
2017-Feb-16 01:33N 58°20' E 011°09'1010.0
2017-Feb-16 00:33N 58°20' E 010°50'2110.3
2017-Feb-15 22:33N 58°15' E 010°12'4 3.9
2017-Feb-15 21:29N 58°14' E 010°04'2 2.0
2017-Feb-15 20:33N 58°13' E 010°01'2 2.1
2017-Feb-15 19:32N 58°12' E 009°58'2 2.2
2017-Feb-15 18:33N 58°10' E 009°54'2 2.2
2017-Feb-15 17:33N 58°09' E 009°51'2 2.0
2017-Feb-15 16:33N 58°08' E 009°48'2 1.8
2017-Feb-15 15:30N 58°07' E 009°45'2 1.8
2017-Feb-15 14:30N 58°06' E 009°42'2 1.8
2017-Feb-15 13:31N 58°05' E 009°39'2 1.8
2017-Feb-15 12:33N 58°05' E 009°36'6 2.0
2017-Feb-15 09:31N 58°01' E 009°26'1 1.4
2017-Feb-15 08:33N 58°01' E 009°24'11 9.2
2017-Feb-15 07:23N 58°06' E 009°42'7 8.2
2017-Feb-15 06:33N 58°09' E 009°53'4 4.3
2017-Feb-15 05:33N 58°11' E 010°01'2 1.9
2017-Feb-15 04:33N 58°13' E 010°03'2 1.5
2017-Feb-15 03:33N 58°12' E 010°00'2 2.1
2017-Feb-15 02:33N 58°11' E 009°57'2 2.0
2017-Feb-15 01:33N 58°10' E 009°54'2 2.2
2017-Feb-15 00:33N 58°09' E 009°50'2 2.0
2017-Feb-14 23:33N 58°08' E 009°47'2 2.2
2017-Feb-14 22:29N 58°06' E 009°43'2 2.2
2017-Feb-14 21:33N 58°05' E 009°40'2 2.0
2017-Feb-14 20:32N 58°04' E 009°37'2 1.9
2017-Feb-14 19:33N 58°03' E 009°34'2 2.0
2017-Feb-14 18:32N 58°02' E 009°31'2 2.1
2017-Feb-14 17:33N 58°01' E 009°27'2 2.3
2017-Feb-14 16:31N 58°00' E 009°23'8 8.1
2017-Feb-14 15:33N 58°04' E 009°36'3 3.1
2017-Feb-14 14:33N 58°04' E 009°42'2 1.7
2017-Feb-14 13:33N 58°03' E 009°39'2 2.2
2017-Feb-14 12:33N 58°02' E 009°36'2 2.1
2017-Feb-14 11:33N 58°00' E 009°32'2 2.2
2017-Feb-14 10:33N 57°60' E 009°29'2 2.2
2017-Feb-14 09:31N 57°59' E 009°25'2 2.2
2017-Feb-14 08:33N 57°58' E 009°21'2 2.2
2017-Feb-14 07:33N 57°57' E 009°17'2 2.1
2017-Feb-14 06:33N 57°56' E 009°14'2 2.1
2017-Feb-14 05:33N 57°55' E 009°10'2 2.2
2017-Feb-14 04:33N 57°54' E 009°07'2 2.2
2017-Feb-14 03:25N 57°53' E 009°03'3 2.2
2017-Feb-14 02:14N 57°51' E 008°58'20 7.4
2017-Feb-13 23:33N 57°41' E 008°27'17 1.5
2017-Feb-13 12:22N 57°34' E 007°58'21 0.9
2017-Feb-12 14:16N 57°34' E 008°36'810.6
2017-Feb-12 13:28N 57°34' E 008°52'1010.3
2017-Feb-12 12:27N 57°35' E 009°11'910.4
2017-Feb-12 11:33N 57°35' E 009°29'1110.5
2017-Feb-12 10:32N 57°36' E 009°49'  

Dump ship's entire track history